createdAt,value
2022-09-28T00:01:18.409Z,2.67
2022-09-28T00:03:46.709Z,2.45
2022-09-28T00:06:15.931Z,2.88
2022-09-28T00:08:43.340Z,2.30
2022-09-28T00:11:13.858Z,2.50
2022-09-28T00:13:43.126Z,2.70
2022-09-28T00:16:16.083Z,2.88
2022-09-28T00:18:44.304Z,2.30
2022-09-28T00:21:17.616Z,2.65
2022-09-28T00:24:04.184Z,2.72
2022-09-28T00:26:32.969Z,2.67
2022-09-28T00:29:01.768Z,2.75
2022-09-28T00:31:34.639Z,2.17
2022-09-28T00:34:02.259Z,3.20
2022-09-28T00:36:31.866Z,2.00
2022-09-28T00:38:59.704Z,2.17
2022-09-28T00:41:28.194Z,2.25
2022-09-28T00:44:26.667Z,2.47
2022-09-28T00:46:56.321Z,2.50
2022-09-28T00:49:37.015Z,1.95
2022-09-28T00:52:07.572Z,2.58
2022-09-28T00:54:35.746Z,2.22
2022-09-28T00:57:04.318Z,2.38
2022-09-28T00:59:33.426Z,2.20
2022-09-28T01:02:01.559Z,2.53
2022-09-28T01:04:30.305Z,2.10
2022-09-28T01:06:59.046Z,2.17
2022-09-28T01:09:27.494Z,2.10
2022-09-28T01:11:55.391Z,2.58
2022-09-28T01:14:25.877Z,2.38
2022-09-28T01:17:13.760Z,2.00
2022-09-28T01:20:11.552Z,2.75
2022-09-28T01:22:53.096Z,2.17
2022-09-28T01:25:34.944Z,2.83
2022-09-28T01:28:09.780Z,2.10
2022-09-28T01:30:47.264Z,2.20
2022-09-28T01:33:22.547Z,2.47
2022-09-28T01:36:22.508Z,2.03
2022-09-28T01:39:06.166Z,3.03
2022-09-28T01:41:36.924Z,2.53
2022-09-28T01:44:09.000Z,3.13
2022-09-28T01:46:44.793Z,1.98
2022-09-28T01:49:19.827Z,2.83
2022-09-28T01:52:00.221Z,2.40
2022-09-28T01:54:34.269Z,3.67
2022-09-28T01:57:10.327Z,2.45
2022-09-28T01:59:42.182Z,2.58
2022-09-28T02:02:19.916Z,2.30
2022-09-28T02:04:54.324Z,3.38
2022-09-28T02:07:26.516Z,2.55
2022-09-28T02:10:03.310Z,2.88
2022-09-28T02:12:39.123Z,2.45
2022-09-28T02:15:24.118Z,2.75
2022-09-28T02:17:50.993Z,2.08
2022-09-28T02:20:18.522Z,2.97
2022-09-28T02:22:51.908Z,3.08
2022-09-28T02:25:47.651Z,2.67
2022-09-28T02:28:14.549Z,2.55
2022-09-28T02:30:43.211Z,3.28
2022-09-28T02:33:16.647Z,2.97
2022-09-28T02:35:43.757Z,3.80
2022-09-28T02:38:12.036Z,3.10
2022-09-28T02:40:39.624Z,3.20
2022-09-28T02:43:35.303Z,4.25
2022-09-28T02:46:15.904Z,2.88
2022-09-28T02:49:10.617Z,2.60
2022-09-28T02:52:03.049Z,3.00
2022-09-28T02:55:00.379Z,2.75
2022-09-28T02:58:14.817Z,2.78
2022-09-28T03:00:49.890Z,5.82
2022-09-28T03:03:16.749Z,2.10
2022-09-28T03:06:32.614Z,2.72
2022-09-28T03:09:11.101Z,2.40
2022-09-28T03:11:49.782Z,2.13
2022-09-28T03:14:16.904Z,3.05
2022-09-28T03:16:45.257Z,1.77
2022-09-28T03:19:13.462Z,1.98
2022-09-28T03:21:40.557Z,1.75
2022-09-28T03:24:07.581Z,1.95
2022-09-28T03:26:34.274Z,1.10
2022-09-28T03:29:01.122Z,1.50
2022-09-28T03:31:27.891Z,1.90
2022-09-28T03:33:54.863Z,2.05
2022-09-28T03:36:21.765Z,1.55
2022-09-28T03:38:48.561Z,1.50
2022-09-28T03:41:15.592Z,1.55
2022-09-28T03:43:42.352Z,1.67
2022-09-28T03:46:09.116Z,1.85
2022-09-28T03:48:36.421Z,1.67
2022-09-28T03:51:07.099Z,1.50
2022-09-28T03:53:33.880Z,2.17
2022-09-28T03:56:06.197Z,2.22
2022-09-28T03:58:33.149Z,1.80
2022-09-28T04:01:05.750Z,1.70
2022-09-28T04:03:33.249Z,1.92
2022-09-28T04:06:00.574Z,1.92
2022-09-28T04:08:27.648Z,1.88
2022-09-28T04:11:01.769Z,2.50
2022-09-28T04:13:30.264Z,1.88
2022-09-28T04:15:59.407Z,2.83
2022-09-28T04:18:26.932Z,2.13
2022-09-28T04:20:59.674Z,1.70
2022-09-28T04:23:28.423Z,2.03
2022-09-28T04:25:55.133Z,2.13
2022-09-28T04:28:40.812Z,2.53
2022-09-28T04:31:13.535Z,2.13
2022-09-28T04:33:40.672Z,2.50
2022-09-28T04:36:09.452Z,1.85
2022-09-28T04:38:52.245Z,2.22
2022-09-28T04:41:20.227Z,2.15
2022-09-28T04:43:47.752Z,2.05
2022-09-28T04:46:15.063Z,3.53
2022-09-28T04:48:41.935Z,2.08
2022-09-28T04:51:08.698Z,2.20
2022-09-28T04:53:35.473Z,2.40
2022-09-28T04:56:03.582Z,2.00
2022-09-28T04:58:30.948Z,2.60
2022-09-28T05:01:00.632Z,2.30
2022-09-28T05:03:28.292Z,2.05
2022-09-28T05:05:55.290Z,2.53
2022-09-28T05:08:22.046Z,2.08
2022-09-28T05:10:49.037Z,2.72
2022-09-28T05:13:17.490Z,1.92
2022-09-28T05:15:44.233Z,2.72
2022-09-28T05:18:11.108Z,1.92
2022-09-28T05:20:41.273Z,2.33
2022-09-28T05:23:10.461Z,2.00
2022-09-28T05:25:37.460Z,1.90
2022-09-28T05:28:04.279Z,2.03
2022-09-28T05:30:31.105Z,1.58
2022-09-28T05:32:57.966Z,2.10
2022-09-28T05:35:24.794Z,1.88
2022-09-28T05:37:51.864Z,1.73
2022-09-28T05:40:20.004Z,1.92
2022-09-28T05:42:46.811Z,2.00
2022-09-28T05:45:13.682Z,1.83
2022-09-28T05:47:41.877Z,1.92
2022-09-28T05:50:12.021Z,1.83
2022-09-28T05:52:39.068Z,2.40
2022-09-28T05:55:07.286Z,1.95
2022-09-28T05:57:34.121Z,2.25
2022-09-28T06:00:01.168Z,2.97
2022-09-28T06:02:28.074Z,1.48
2022-09-28T06:04:55.909Z,1.55
2022-09-28T06:07:23.539Z,1.65
2022-09-28T06:09:50.417Z,2.00
2022-09-28T06:12:17.562Z,1.63
2022-09-28T06:14:45.032Z,1.48
2022-09-28T06:17:11.997Z,1.75
2022-09-28T06:19:39.504Z,1.92
2022-09-28T06:22:06.266Z,2.25
2022-09-28T06:24:33.193Z,1.58
2022-09-28T06:26:59.904Z,1.25
2022-09-28T06:29:26.763Z,1.15
2022-09-28T06:31:54.028Z,1.42
2022-09-28T06:34:21.592Z,2.00
2022-09-28T06:36:48.997Z,1.92
2022-09-28T06:39:15.870Z,1.73
2022-09-28T06:41:42.745Z,2.13
2022-09-28T06:44:09.532Z,2.33
2022-09-28T06:46:38.584Z,1.65
2022-09-28T06:49:09.363Z,1.52
2022-09-28T06:51:36.978Z,1.60
2022-09-28T06:54:04.089Z,1.33
2022-09-28T06:56:33.084Z,1.50
2022-09-28T06:59:00.099Z,1.90
2022-09-28T07:01:27.120Z,2.05
2022-09-28T07:03:55.821Z,1.70
2022-09-28T07:06:24.376Z,1.67
2022-09-28T07:09:00.066Z,1.45
2022-09-28T07:11:41.812Z,1.55
2022-09-28T07:14:19.780Z,1.45
2022-09-28T07:17:11.116Z,2.03
2022-09-28T07:19:39.056Z,1.73
2022-09-28T07:22:05.859Z,1.30
2022-09-28T07:24:32.580Z,2.10
2022-09-28T07:26:59.877Z,1.52
2022-09-28T07:29:26.562Z,1.35
2022-09-28T07:31:54.338Z,1.83
2022-09-28T07:34:23.346Z,1.92
2022-09-28T07:36:50.395Z,1.75
2022-09-28T07:39:17.122Z,1.95
2022-09-28T07:41:44.560Z,2.03
2022-09-28T07:44:11.405Z,2.00
2022-09-28T07:46:38.462Z,1.75
2022-09-28T07:49:09.721Z,2.00
2022-09-28T07:51:39.015Z,2.78
2022-09-28T07:54:07.495Z,2.63
2022-09-28T07:56:34.964Z,2.08
2022-09-28T07:59:01.760Z,1.88
2022-09-28T08:01:30.801Z,1.85
2022-09-28T08:03:57.623Z,1.52
2022-09-28T08:06:24.370Z,1.48
2022-09-28T08:08:53.049Z,1.63
2022-09-28T08:11:19.797Z,1.25
2022-09-28T08:13:47.737Z,1.27
2022-09-28T08:16:23.463Z,1.50
2022-09-28T08:18:50.822Z,1.48
2022-09-28T08:21:36.324Z,1.52
2022-09-28T08:24:03.138Z,1.27
2022-09-28T08:26:29.876Z,1.40
2022-09-28T08:28:56.708Z,1.50
2022-09-28T08:31:23.511Z,1.90
2022-09-28T08:33:53.859Z,1.20
2022-09-28T08:36:21.354Z,1.38
2022-09-28T08:38:48.201Z,1.40
2022-09-28T08:41:54.425Z,1.85
2022-09-28T08:44:27.041Z,1.70
2022-09-28T08:47:02.286Z,1.92
2022-09-28T08:49:50.408Z,1.63
2022-09-28T08:52:26.267Z,1.42
2022-09-28T08:55:02.882Z,1.80
2022-09-28T08:57:36.364Z,1.40
2022-09-28T09:00:08.352Z,2.58
2022-09-28T09:02:40.281Z,2.67
2022-09-28T09:05:14.971Z,1.93
2022-09-28T09:07:54.489Z,1.83
2022-09-28T09:13:20.654Z,2.92
2022-09-28T09:15:56.156Z,1.73
2022-09-28T09:18:42.989Z,2.10
2022-09-28T09:21:49.268Z,1.45
2022-09-28T09:24:19.131Z,2.58
2022-09-28T09:26:45.976Z,2.20
2022-09-28T09:29:46.462Z,2.00
2022-09-28T09:32:31.317Z,2.08
2022-09-28T09:35:22.498Z,2.05
2022-09-28T09:38:19.281Z,2.72
2022-09-28T09:41:06.463Z,1.73
2022-09-28T09:43:48.360Z,1.83
2022-09-28T09:46:39.878Z,2.20
2022-09-28T09:49:20.649Z,1.85
2022-09-28T09:52:02.091Z,1.38
2022-09-28T09:54:54.070Z,1.95
2022-09-28T09:57:26.728Z,1.70
2022-09-28T09:59:55.369Z,1.95
2022-09-28T10:02:26.554Z,2.10
2022-09-28T10:04:57.780Z,2.42
2022-09-28T10:07:57.900Z,2.22
2022-09-28T10:10:33.570Z,1.67
2022-09-28T10:13:00.416Z,2.58
2022-09-28T10:15:32.338Z,1.60
2022-09-28T10:18:06.817Z,1.80
2022-09-28T10:20:42.988Z,3.08
2022-09-28T10:23:23.341Z,3.20
2022-09-28T10:25:54.321Z,2.10
2022-09-28T10:28:35.901Z,2.25
2022-09-28T10:31:35.346Z,2.92
2022-09-28T10:34:03.513Z,1.60
2022-09-28T10:36:38.359Z,2.53
2022-09-28T10:39:06.406Z,9.52
2022-09-28T10:41:33.251Z,7.35
2022-09-28T10:44:06.623Z,3.90
2022-09-28T10:46:35.399Z,7.35
2022-09-28T10:49:14.463Z,6.10
2022-09-28T10:51:48.251Z,7.57
2022-09-28T10:54:17.979Z,6.00
2022-09-28T10:56:45.829Z,7.75
2022-09-28T10:59:30.666Z,4.88
2022-09-28T11:02:19.700Z,4.60
2022-09-28T11:04:53.324Z,4.05
2022-09-28T11:07:24.843Z,3.13
2022-09-28T11:09:53.632Z,2.80
2022-09-28T11:12:33.467Z,2.10
2022-09-28T11:15:03.540Z,2.40
2022-09-28T11:17:32.658Z,1.95
2022-09-28T11:20:27.774Z,3.70
2022-09-28T11:23:18.464Z,1.90
2022-09-28T11:25:58.220Z,1.85
2022-09-28T11:28:30.313Z,2.65
2022-09-28T11:30:57.762Z,2.00
2022-09-28T11:33:33.264Z,2.40
2022-09-28T11:36:12.382Z,1.65
2022-09-28T11:39:18.293Z,1.75
2022-09-28T11:41:58.061Z,2.10
2022-09-28T11:44:36.486Z,1.60
2022-09-28T11:47:40.370Z,1.53
2022-09-28T11:50:23.772Z,1.75
2022-09-28T11:53:13.637Z,1.52
2022-09-28T11:56:27.204Z,1.75
2022-09-28T11:58:59.166Z,1.92
2022-09-28T12:01:50.322Z,1.80
2022-09-28T12:04:22.981Z,1.35
2022-09-28T12:07:31.792Z,1.20
2022-09-28T12:10:17.478Z,1.30
2022-09-28T12:12:54.583Z,1.48
2022-09-28T12:15:34.917Z,1.25
2022-09-28T12:18:23.521Z,1.10
2022-09-28T12:21:17.344Z,1.40
2022-09-28T12:23:46.981Z,2.15
2022-09-28T12:26:19.744Z,1.20
2022-09-28T12:28:50.745Z,1.33
2022-09-28T12:31:34.280Z,1.85
2022-09-28T12:34:02.406Z,2.10
2022-09-28T12:37:06.087Z,1.63
2022-09-28T12:39:57.403Z,1.35
2022-09-28T12:42:34.088Z,2.03
2022-09-28T12:45:12.959Z,2.00
2022-09-28T12:47:55.218Z,1.70
2022-09-28T12:50:43.320Z,4.32
2022-09-28T12:53:27.379Z,6.30
2022-09-28T12:56:21.611Z,2.80
2022-09-28T12:59:00.142Z,2.35
2022-09-28T13:01:50.629Z,1.95
2022-09-28T13:04:41.189Z,1.88
2022-09-28T13:07:31.041Z,2.08
2022-09-28T13:10:01.495Z,2.17
2022-09-28T13:12:40.666Z,2.40
2022-09-28T13:15:36.586Z,1.80
2022-09-28T13:18:22.984Z,2.28
2022-09-28T13:21:19.386Z,1.80
2022-09-28T13:23:49.405Z,2.00
2022-09-28T13:26:31.824Z,2.20
2022-09-28T13:29:04.621Z,1.98
2022-09-28T13:31:36.019Z,1.77
2022-09-28T13:34:07.362Z,1.70
2022-09-28T13:36:36.748Z,1.90
2022-09-28T13:39:04.472Z,1.40
2022-09-28T13:41:36.795Z,1.83
2022-09-28T13:44:22.285Z,1.77
2022-09-28T13:46:55.661Z,1.70
2022-09-28T13:49:30.197Z,1.48
2022-09-28T13:52:31.467Z,1.75
2022-09-28T13:55:14.649Z,1.70
2022-09-28T13:58:04.962Z,1.45
2022-09-28T14:00:57.918Z,2.20
2022-09-28T14:03:54.396Z,1.23
2022-09-28T14:06:22.990Z,1.25
2022-09-28T14:09:09.439Z,1.45
2022-09-28T14:11:40.280Z,1.35
2022-09-28T14:14:14.228Z,1.50
2022-09-28T14:16:42.468Z,1.40
2022-09-28T14:19:13.153Z,1.13
2022-09-28T14:22:01.873Z,1.02
2022-09-28T14:24:51.878Z,1.10
2022-09-28T14:27:32.652Z,0.95
2022-09-28T14:30:12.614Z,1.00
2022-09-28T14:32:41.375Z,1.52
2022-09-28T14:35:31.541Z,1.57
2022-09-28T14:38:30.424Z,1.27
2022-09-28T14:41:12.630Z,1.65
2022-09-28T14:43:45.149Z,1.40
2022-09-28T14:46:12.029Z,1.10
2022-09-28T14:48:49.038Z,1.50
2022-09-28T14:51:25.132Z,1.10
2022-09-28T14:53:54.943Z,1.23
2022-09-28T14:56:22.563Z,2.10
2022-09-28T14:58:58.135Z,1.17
2022-09-28T15:01:26.171Z,1.20
2022-09-28T15:03:56.764Z,1.38
2022-09-28T15:06:27.274Z,1.60
2022-09-28T15:08:54.014Z,1.67
2022-09-28T15:11:23.663Z,1.35
2022-09-28T15:14:04.589Z,1.15
2022-09-28T15:16:32.263Z,1.33
2022-09-28T15:19:30.804Z,1.65
2022-09-28T15:21:57.559Z,4.03
2022-09-28T15:24:36.345Z,2.05
2022-09-28T15:27:13.858Z,1.33
2022-09-28T15:29:40.838Z,1.55
2022-09-28T15:32:28.711Z,1.30
2022-09-28T15:34:58.183Z,1.08
2022-09-28T15:37:29.511Z,0.90
2022-09-28T15:39:58.715Z,0.88
2022-09-28T15:42:25.757Z,0.90
2022-09-28T15:45:26.915Z,0.77
2022-09-28T15:48:26.286Z,1.25
2022-09-28T15:51:05.478Z,0.98
2022-09-28T15:53:33.728Z,0.88
2022-09-28T15:56:09.819Z,0.80
2022-09-28T15:58:38.357Z,1.58
2022-09-28T16:01:24.004Z,1.40
2022-09-28T16:03:50.780Z,1.38
2022-09-28T16:06:17.535Z,0.80
2022-09-28T16:08:49.177Z,2.47
2022-09-28T16:11:27.908Z,1.33
2022-09-28T16:14:29.180Z,1.30
2022-09-28T16:16:59.049Z,0.90
2022-09-28T16:20:15.091Z,1.02
2022-09-28T16:22:43.256Z,1.30
2022-09-28T16:25:19.111Z,1.00
2022-09-28T16:27:46.153Z,0.90
2022-09-28T16:30:15.910Z,1.13
2022-09-28T16:36:01.160Z,1.40
2022-09-28T16:38:28.686Z,1.35
2022-09-28T16:40:56.905Z,0.80
2022-09-28T16:43:31.809Z,1.20
2022-09-28T16:46:13.437Z,1.50
2022-09-28T16:48:49.167Z,1.13
2022-09-28T16:51:17.192Z,1.10
2022-09-28T16:54:03.580Z,1.92
2022-09-28T16:56:32.151Z,0.95
2022-09-28T16:58:58.904Z,1.95
2022-09-28T17:01:26.205Z,1.30
2022-09-28T17:03:53.002Z,2.38
2022-09-28T17:06:22.368Z,1.20
2022-09-28T17:08:49.246Z,1.50
2022-09-28T17:11:23.741Z,1.55
2022-09-28T17:13:52.096Z,1.83
2022-09-28T17:16:49.371Z,1.42
2022-09-28T17:19:21.957Z,1.60
2022-09-28T17:21:49.293Z,1.70
2022-09-28T17:24:16.228Z,1.98
2022-09-28T17:26:45.164Z,2.22
2022-09-28T17:29:14.712Z,1.80
2022-09-28T17:31:42.837Z,2.10
2022-09-28T17:34:11.259Z,1.98
2022-09-28T17:36:38.621Z,1.92
2022-09-28T17:39:06.978Z,1.65
2022-09-28T17:42:16.607Z,2.17
2022-09-28T17:44:43.393Z,2.22
2022-09-28T17:47:11.627Z,2.60
2022-09-28T17:49:38.947Z,2.70
2022-09-28T17:52:05.677Z,3.17
2022-09-28T17:54:34.009Z,2.33
2022-09-28T17:57:00.788Z,1.70
2022-09-28T17:59:28.682Z,2.22
2022-09-28T18:01:58.324Z,2.75
2022-09-28T18:04:50.757Z,3.47
2022-09-28T18:07:13.929Z,2.50
2022-09-28T18:09:40.810Z,2.05
2022-09-28T18:12:07.843Z,2.13
2022-09-28T18:14:36.148Z,1.88
2022-09-28T18:17:03.003Z,2.13
2022-09-28T18:19:32.142Z,1.92
2022-09-28T18:21:59.618Z,2.83
2022-09-28T18:24:26.362Z,1.38
2022-09-28T18:26:53.095Z,2.72
2022-09-28T18:29:19.843Z,2.63
2022-09-28T18:31:47.637Z,2.70
2022-09-28T18:34:14.612Z,2.95
2022-09-28T18:36:41.509Z,3.55
2022-09-28T18:39:08.209Z,2.17
2022-09-28T18:41:35.169Z,2.22
2022-09-28T18:44:02.289Z,2.22
2022-09-28T18:46:36.493Z,2.08
2022-09-28T18:49:04.818Z,2.47
2022-09-28T18:51:31.567Z,3.05
2022-09-28T18:53:58.444Z,3.35
2022-09-28T18:56:25.810Z,3.05
2022-09-28T18:58:52.819Z,2.63
2022-09-28T19:01:30.507Z,2.72
2022-09-28T19:04:01.914Z,2.17
2022-09-28T19:06:30.058Z,2.58
2022-09-28T19:08:57.525Z,3.92
2022-09-28T19:11:25.576Z,2.90
2022-09-28T19:13:54.412Z,2.67
2022-09-28T19:16:24.457Z,3.60
2022-09-28T19:18:53.837Z,3.40
2022-09-28T19:21:21.379Z,3.25
2022-09-28T19:23:49.790Z,3.63
2022-09-28T19:26:21.117Z,3.40
2022-09-28T19:28:48.575Z,3.78
2022-09-28T19:31:17.233Z,2.60
2022-09-28T19:33:45.997Z,2.53
2022-09-28T19:36:16.754Z,2.03
2022-09-28T19:38:43.486Z,2.50
2022-09-28T19:41:39.389Z,2.10
2022-09-28T19:44:26.958Z,2.17
2022-09-28T19:47:07.599Z,2.60
2022-09-28T19:49:39.365Z,2.92
2022-09-28T19:52:16.735Z,2.83
2022-09-28T19:54:45.904Z,2.10
2022-09-28T19:57:16.153Z,2.23
2022-09-28T19:59:43.238Z,2.60
2022-09-28T20:02:11.218Z,2.83
2022-09-28T20:04:38.093Z,2.60
2022-09-28T20:07:05.196Z,2.95
2022-09-28T20:09:32.834Z,3.53
2022-09-28T20:11:59.737Z,2.50
2022-09-28T20:14:30.720Z,2.75
2022-09-28T20:17:01.044Z,2.65
2022-09-28T20:19:27.956Z,2.70
2022-09-28T20:21:55.268Z,3.42
2022-09-28T20:24:22.120Z,2.92
2022-09-28T20:26:49.709Z,2.45
2022-09-28T20:29:16.606Z,2.55
2022-09-28T20:31:44.205Z,4.15
2022-09-28T20:34:12.691Z,2.63
2022-09-28T20:36:44.776Z,2.17
2022-09-28T20:41:49.562Z,2.33
2022-09-28T20:44:16.739Z,2.47
2022-09-28T20:46:46.593Z,1.90
2022-09-28T20:49:13.525Z,3.42
2022-09-28T20:51:40.480Z,2.55
2022-09-28T20:54:07.491Z,2.05
2022-09-28T20:56:38.242Z,2.55
2022-09-28T20:59:07.668Z,2.70
2022-09-28T21:01:35.034Z,2.63
2022-09-28T21:04:04.027Z,3.13
2022-09-28T21:06:33.429Z,2.50
2022-09-28T21:09:00.423Z,2.38
2022-09-28T21:11:30.034Z,1.90
2022-09-28T21:14:02.894Z,2.92
2022-09-28T21:16:31.711Z,2.08
2022-09-28T21:18:58.751Z,2.45
2022-09-28T21:21:26.497Z,2.13
2022-09-28T21:23:57.987Z,1.73
2022-09-28T21:26:27.757Z,1.92
2022-09-28T21:29:10.583Z,3.17
2022-09-28T21:31:47.701Z,2.28
2022-09-28T21:34:19.919Z,2.60
2022-09-28T21:36:53.116Z,2.35
2022-09-28T21:39:20.822Z,2.83
2022-09-28T21:41:48.350Z,2.75
2022-09-28T21:44:15.312Z,2.00
2022-09-28T21:46:42.778Z,3.67
2022-09-28T21:49:10.985Z,2.72
2022-09-28T21:51:38.231Z,2.75
2022-09-28T21:54:05.415Z,2.80
2022-09-28T21:56:32.216Z,2.67
2022-09-28T21:58:59.116Z,2.17
2022-09-28T22:01:26.381Z,2.58
2022-09-28T22:03:55.796Z,3.33
2022-09-28T22:06:25.218Z,3.40
2022-09-28T22:08:52.157Z,2.22
2022-09-28T22:11:21.841Z,2.15
2022-09-28T22:13:54.091Z,2.38
2022-09-28T22:16:24.164Z,1.90
2022-09-28T22:18:51.390Z,2.67
2022-09-28T22:21:24.046Z,2.30
2022-09-28T22:23:51.188Z,3.38
2022-09-28T22:26:24.708Z,2.63
2022-09-28T22:28:57.583Z,4.50
2022-09-28T22:31:30.095Z,3.10
2022-09-28T22:33:57.820Z,2.63
2022-09-28T22:36:26.027Z,2.50
2022-09-28T22:38:54.153Z,3.03
2022-09-28T22:41:21.705Z,1.95
2022-09-28T22:43:53.386Z,2.97
2022-09-28T22:46:28.814Z,2.47
2022-09-28T22:48:58.173Z,2.17
2022-09-28T22:51:27.272Z,2.50
2022-09-28T22:53:54.198Z,1.92
2022-09-28T22:56:21.220Z,2.40
2022-09-28T22:58:48.296Z,1.63
2022-09-28T23:01:17.542Z,2.47
2022-09-28T23:03:45.001Z,1.70
2022-09-28T23:06:13.576Z,2.20
2022-09-28T23:08:40.540Z,1.67
2022-09-28T23:11:07.420Z,2.10
2022-09-28T23:13:35.434Z,1.60
2022-09-28T23:16:05.619Z,1.75
2022-09-28T23:18:34.764Z,1.98
2022-09-28T23:21:04.262Z,2.03
2022-09-28T23:23:31.971Z,2.33
2022-09-28T23:25:59.533Z,2.00
2022-09-28T23:28:27.271Z,2.80
2022-09-28T23:30:54.451Z,2.55
2022-09-28T23:33:22.558Z,2.15
2022-09-28T23:35:49.926Z,2.45
2022-09-28T23:38:18.497Z,2.83
2022-09-28T23:40:46.957Z,3.33
2022-09-28T23:43:14.600Z,2.75
2022-09-28T23:45:44.205Z,2.72
2022-09-28T23:48:11.073Z,2.22
2022-09-28T23:50:37.816Z,3.28
2022-09-28T23:53:05.762Z,3.42
2022-09-28T23:55:32.881Z,3.05
2022-09-28T23:57:59.775Z,2.22
